sensor_id;sensor_type;location;lat;lon;timestamp;temperature;humidity
76838;DHT22;65797;47.352;8.164;2023-02-11T00:01:38;-3.00;99.90
76838;DHT22;65797;47.352;8.164;2023-02-11T00:04:05;-3.00;94.00
76838;DHT22;65797;47.352;8.164;2023-02-11T00:06:32;-3.00;90.50
76838;DHT22;65797;47.352;8.164;2023-02-11T00:08:58;-3.00;36.90
76838;DHT22;65797;47.352;8.164;2023-02-11T00:11:25;-3.00;74.50
76838;DHT22;65797;47.352;8.164;2023-02-11T00:13:55;-3.10;99.90
76838;DHT22;65797;47.352;8.164;2023-02-11T00:16:22;-3.10;99.90
76838;DHT22;65797;47.352;8.164;2023-02-11T00:18:48;-3.20;99.90
76838;DHT22;65797;47.352;8.164;2023-02-11T00:21:20;-3.20;99.90
76838;DHT22;65797;47.352;8.164;2023-02-11T00:23:46;-3.20;99.90
76838;DHT22;65797;47.352;8.164;2023-02-11T00:26:14;-3.10;99.90
76838;DHT22;65797;47.352;8.164;2023-02-11T00:28:40;-3.20;99.90
76838;DHT22;65797;47.352;8.164;2023-02-11T00:31:06;-3.30;99.90
76838;DHT22;65797;47.352;8.164;2023-02-11T00:33:32;-3.30;99.90
76838;DHT22;65797;47.352;8.164;2023-02-11T00:35:57;-3.30;99.90
76838;DHT22;65797;47.352;8.164;2023-02-11T00:38:23;-3.20;99.90
76838;DHT22;65797;47.352;8.164;2023-02-11T00:40:49;-3.20;99.90
76838;DHT22;65797;47.352;8.164;2023-02-11T00:43:14;-3.20;99.90
76838;DHT22;65797;47.352;8.164;2023-02-11T00:45:40;-3.30;90.70
76838;DHT22;65797;47.352;8.164;2023-02-11T00:48:06;-3.30;99.90
76838;DHT22;65797;47.352;8.164;2023-02-11T00:50:31;-3.30;99.90
76838;DHT22;65797;47.352;8.164;2023-02-11T00:52:57;-3.30;99.90
76838;DHT22;65797;47.352;8.164;2023-02-11T00:55:23;-3.30;99.90
76838;DHT22;65797;47.352;8.164;2023-02-11T00:57:49;-3.30;99.90
76838;DHT22;65797;47.352;8.164;2023-02-11T01:00:15;-3.30;99.90
76838;DHT22;65797;47.352;8.164;2023-02-11T01:02:40;-3.30;99.90
76838;DHT22;65797;47.352;8.164;2023-02-11T01:05:06;-3.40;99.90
76838;DHT22;65797;47.352;8.164;2023-02-11T01:07:32;-3.40;99.90
76838;DHT22;65797;47.352;8.164;2023-02-11T01:09:58;-3.40;99.90
76838;DHT22;65797;47.352;8.164;2023-02-11T01:12:24;-3.40;99.90
76838;DHT22;65797;47.352;8.164;2023-02-11T01:14:50;-3.50;99.90
76838;DHT22;65797;47.352;8.164;2023-02-11T01:17:16;-3.50;99.90
76838;DHT22;65797;47.352;8.164;2023-02-11T01:19:41;-3.60;99.90
76838;DHT22;65797;47.352;8.164;2023-02-11T01:22:07;-3.60;99.90
76838;DHT22;65797;47.352;8.164;2023-02-11T01:24:33;-3.60;99.90
76838;DHT22;65797;47.352;8.164;2023-02-11T01:26:58;-3.80;99.90
76838;DHT22;65797;47.352;8.164;2023-02-11T01:29:24;-3.90;99.90
76838;DHT22;65797;47.352;8.164;2023-02-11T01:31:50;-4.00;1.00
76838;DHT22;65797;47.352;8.164;2023-02-11T02:05:52;-3.90;99.90
76838;DHT22;65797;47.352;8.164;2023-02-11T02:10:57;-4.10;1.00
76838;DHT22;65797;47.352;8.164;2023-02-11T02:13:26;-4.00;1.00
76838;DHT22;65797;47.352;8.164;2023-02-11T02:15:57;-4.00;1.00
76838;DHT22;65797;47.352;8.164;2023-02-11T02:32:38;-4.00;1.00
76838;DHT22;65797;47.352;8.164;2023-02-11T02:38:18;-3.90;99.90
76838;DHT22;65797;47.352;8.164;2023-02-11T02:41:02;-3.90;99.90
76838;DHT22;65797;47.352;8.164;2023-02-11T02:43:30;-3.90;99.90
76838;DHT22;65797;47.352;8.164;2023-02-11T02:48:38;-3.90;99.90
76838;DHT22;65797;47.352;8.164;2023-02-11T02:51:07;-4.00;99.90
76838;DHT22;65797;47.352;8.164;2023-02-11T03:05:05;-4.10;1.00
76838;DHT22;65797;47.352;8.164;2023-02-11T03:07:50;-4.10;1.00
76838;DHT22;65797;47.352;8.164;2023-02-11T03:12:50;-4.00;1.00
76838;DHT22;65797;47.352;8.164;2023-02-11T03:15:18;-4.10;1.00
76838;DHT22;65797;47.352;8.164;2023-02-11T03:17:46;-4.10;1.00
76838;DHT22;65797;47.352;8.164;2023-02-11T03:20:15;-4.10;1.00
76838;DHT22;65797;47.352;8.164;2023-02-11T03:25:13;-4.10;1.00
76838;DHT22;65797;47.352;8.164;2023-02-11T03:27:57;-4.10;99.90
76838;DHT22;65797;47.352;8.164;2023-02-11T03:30:35;-4.10;99.90
76838;DHT22;65797;47.352;8.164;2023-02-11T04:01:31;-4.40;99.90
76838;DHT22;65797;47.352;8.164;2023-02-11T04:03:57;-4.40;99.90
76838;DHT22;65797;47.352;8.164;2023-02-11T04:06:23;-4.50;99.90
76838;DHT22;65797;47.352;8.164;2023-02-11T04:11:24;-4.50;1.00
76838;DHT22;65797;47.352;8.164;2023-02-11T04:13:49;-4.60;99.90
76838;DHT22;65797;47.352;8.164;2023-02-11T04:16:15;-4.50;1.00
76838;DHT22;65797;47.352;8.164;2023-02-11T04:18:41;-4.60;1.00
76838;DHT22;65797;47.352;8.164;2023-02-11T04:21:07;-4.50;1.00
76838;DHT22;65797;47.352;8.164;2023-02-11T04:23:32;-4.50;1.00
76838;DHT22;65797;47.352;8.164;2023-02-11T04:25:58;-4.50;1.00
76838;DHT22;65797;47.352;8.164;2023-02-11T04:28:24;-4.50;1.00
76838;DHT22;65797;47.352;8.164;2023-02-11T04:30:51;-4.50;1.00
76838;DHT22;65797;47.352;8.164;2023-02-11T04:33:17;-4.50;1.00
76838;DHT22;65797;47.352;8.164;2023-02-11T04:35:42;-4.50;99.90
76838;DHT22;65797;47.352;8.164;2023-02-11T04:38:08;-4.50;99.90
76838;DHT22;65797;47.352;8.164;2023-02-11T04:40:34;-4.50;1.00
76838;DHT22;65797;47.352;8.164;2023-02-11T04:42:59;-4.60;1.00
76838;DHT22;65797;47.352;8.164;2023-02-11T04:45:25;-4.60;99.90
76838;DHT22;65797;47.352;8.164;2023-02-11T04:47:50;-4.60;99.90
76838;DHT22;65797;47.352;8.164;2023-02-11T04:50:16;-4.60;1.00
76838;DHT22;65797;47.352;8.164;2023-02-11T04:52:42;-4.50;1.00
76838;DHT22;65797;47.352;8.164;2023-02-11T04:55:08;-4.60;99.90
76838;DHT22;65797;47.352;8.164;2023-02-11T04:57:33;-4.60;99.90
76838;DHT22;65797;47.352;8.164;2023-02-11T04:59:59;-4.60;99.90
76838;DHT22;65797;47.352;8.164;2023-02-11T05:02:25;-4.60;99.90
76838;DHT22;65797;47.352;8.164;2023-02-11T05:04:50;-4.50;99.90
76838;DHT22;65797;47.352;8.164;2023-02-11T05:07:16;-4.60;99.90
76838;DHT22;65797;47.352;8.164;2023-02-11T05:09:42;-4.50;99.90
76838;DHT22;65797;47.352;8.164;2023-02-11T05:12:07;-4.60;99.90
76838;DHT22;65797;47.352;8.164;2023-02-11T05:14:33;-4.60;99.90
76838;DHT22;65797;47.352;8.164;2023-02-11T05:16:59;-4.70;99.90
76838;DHT22;65797;47.352;8.164;2023-02-11T05:19:24;-4.70;99.90
76838;DHT22;65797;47.352;8.164;2023-02-11T05:21:50;-4.70;99.90
76838;DHT22;65797;47.352;8.164;2023-02-11T05:24:18;-4.70;99.90
76838;DHT22;65797;47.352;8.164;2023-02-11T05:26:44;-4.70;1.00
76838;DHT22;65797;47.352;8.164;2023-02-11T05:29:09;-4.60;1.00
76838;DHT22;65797;47.352;8.164;2023-02-11T05:31:35;-4.60;1.00
76838;DHT22;65797;47.352;8.164;2023-02-11T05:34:01;-4.70;99.90
76838;DHT22;65797;47.352;8.164;2023-02-11T05:36:28;-4.70;99.90
76838;DHT22;65797;47.352;8.164;2023-02-11T05:38:54;-4.70;99.90
76838;DHT22;65797;47.352;8.164;2023-02-11T05:41:20;-4.60;99.90
76838;DHT22;65797;47.352;8.164;2023-02-11T05:43:49;-4.70;99.90
76838;DHT22;65797;47.352;8.164;2023-02-11T05:46:18;-4.70;99.90
76838;DHT22;65797;47.352;8.164;2023-02-11T05:48:44;-4.70;99.90
76838;DHT22;65797;47.352;8.164;2023-02-11T05:51:10;-4.70;99.90
76838;DHT22;65797;47.352;8.164;2023-02-11T05:53:36;-4.70;99.90
76838;DHT22;65797;47.352;8.164;2023-02-11T05:56:01;-4.80;99.90
76838;DHT22;65797;47.352;8.164;2023-02-11T05:58:27;-4.80;99.90
76838;DHT22;65797;47.352;8.164;2023-02-11T06:00:53;-4.80;99.90
76838;DHT22;65797;47.352;8.164;2023-02-11T06:03:19;-4.80;99.90
76838;DHT22;65797;47.352;8.164;2023-02-11T06:05:45;-4.90;99.90
76838;DHT22;65797;47.352;8.164;2023-02-11T06:08:11;-4.90;99.90
76838;DHT22;65797;47.352;8.164;2023-02-11T06:10:37;-4.90;1.00
76838;DHT22;65797;47.352;8.164;2023-02-11T06:13:03;-4.90;1.00
76838;DHT22;65797;47.352;8.164;2023-02-11T06:15:29;-4.90;1.00
76838;DHT22;65797;47.352;8.164;2023-02-11T06:17:55;-4.90;1.00
76838;DHT22;65797;47.352;8.164;2023-02-11T06:20:21;-4.90;1.00
76838;DHT22;65797;47.352;8.164;2023-02-11T06:22:46;-4.90;99.90
76838;DHT22;65797;47.352;8.164;2023-02-11T06:25:12;-4.90;1.00
76838;DHT22;65797;47.352;8.164;2023-02-11T06:27:38;-4.90;1.00
76838;DHT22;65797;47.352;8.164;2023-02-11T06:30:05;-4.90;1.00
76838;DHT22;65797;47.352;8.164;2023-02-11T06:32:31;-4.90;1.00
76838;DHT22;65797;47.352;8.164;2023-02-11T06:34:57;-4.90;1.00
76838;DHT22;65797;47.352;8.164;2023-02-11T06:37:23;-4.90;1.00
76838;DHT22;65797;47.352;8.164;2023-02-11T06:39:48;-4.90;1.00
76838;DHT22;65797;47.352;8.164;2023-02-11T06:42:14;-4.90;1.00
76838;DHT22;65797;47.352;8.164;2023-02-11T06:44:40;-4.90;1.00
76838;DHT22;65797;47.352;8.164;2023-02-11T06:47:06;-4.90;1.00
76838;DHT22;65797;47.352;8.164;2023-02-11T06:49:32;-4.90;1.00
76838;DHT22;65797;47.352;8.164;2023-02-11T06:51:57;-4.90;1.00
76838;DHT22;65797;47.352;8.164;2023-02-11T06:54:24;-4.90;1.00
76838;DHT22;65797;47.352;8.164;2023-02-11T06:56:49;-5.00;1.00
76838;DHT22;65797;47.352;8.164;2023-02-11T06:59:17;-5.00;1.00
76838;DHT22;65797;47.352;8.164;2023-02-11T07:01:43;-4.90;1.00
76838;DHT22;65797;47.352;8.164;2023-02-11T07:04:09;-4.90;1.00
76838;DHT22;65797;47.352;8.164;2023-02-11T07:06:35;-4.90;1.00
76838;DHT22;65797;47.352;8.164;2023-02-11T07:09:03;-4.90;1.00
76838;DHT22;65797;47.352;8.164;2023-02-11T07:11:29;-4.90;1.00
76838;DHT22;65797;47.352;8.164;2023-02-11T07:14:00;-4.90;1.00
76838;DHT22;65797;47.352;8.164;2023-02-11T07:16:26;-4.70;99.90
76838;DHT22;65797;47.352;8.164;2023-02-11T07:18:52;-4.60;99.90
76838;DHT22;65797;47.352;8.164;2023-02-11T07:21:20;-4.60;99.90
76838;DHT22;65797;47.352;8.164;2023-02-11T07:23:47;-4.50;99.90
76838;DHT22;65797;47.352;8.164;2023-02-11T07:26:19;-4.30;99.90
76838;DHT22;65797;47.352;8.164;2023-02-11T07:28:47;-4.10;1.00
76838;DHT22;65797;47.352;8.164;2023-02-11T07:31:31;-3.90;99.90
76838;DHT22;65797;47.352;8.164;2023-02-11T07:33:58;-3.80;99.90
76838;DHT22;65797;47.352;8.164;2023-02-11T07:36:25;-3.70;99.90
76838;DHT22;65797;47.352;8.164;2023-02-11T07:38:53;-3.50;1.00
76838;DHT22;65797;47.352;8.164;2023-02-11T07:41:21;-3.40;1.00
76838;DHT22;65797;47.352;8.164;2023-02-11T07:48:57;-3.10;99.90
76838;DHT22;65797;47.352;8.164;2023-02-11T08:43:10;1.70;1.00
76838;DHT22;65797;47.352;8.164;2023-02-11T08:45:36;2.30;99.90
76838;DHT22;65797;47.352;8.164;2023-02-11T08:48:02;2.50;99.90
76838;DHT22;65797;47.352;8.164;2023-02-11T08:50:27;2.80;99.90
76838;DHT22;65797;47.352;8.164;2023-02-11T08:52:53;3.20;99.90
76838;DHT22;65797;47.352;8.164;2023-02-11T08:55:20;3.20;99.90
76838;DHT22;65797;47.352;8.164;2023-02-11T08:57:46;3.40;99.90
76838;DHT22;65797;47.352;8.164;2023-02-11T09:00:12;3.60;99.90
76838;DHT22;65797;47.352;8.164;2023-02-11T09:02:38;4.00;99.90
76838;DHT22;65797;47.352;8.164;2023-02-11T09:05:04;4.50;99.90
76838;DHT22;65797;47.352;8.164;2023-02-11T09:07:30;4.80;99.90
76838;DHT22;65797;47.352;8.164;2023-02-11T11:31:34;7.10;99.90
76838;DHT22;65797;47.352;8.164;2023-02-11T11:36:45;6.60;99.90
76838;DHT22;65797;47.352;8.164;2023-02-11T11:39:32;6.50;99.90
76838;DHT22;65797;47.352;8.164;2023-02-11T12:54:30;9.40;99.90
76838;DHT22;65797;47.352;8.164;2023-02-11T13:18:33;11.50;99.90
76838;DHT22;65797;47.352;8.164;2023-02-11T13:39:22;9.90;99.90
76838;DHT22;65797;47.352;8.164;2023-02-11T13:44:25;9.40;99.90
76838;DHT22;65797;47.352;8.164;2023-02-11T14:07:32;9.80;99.90
76838;DHT22;65797;47.352;8.164;2023-02-11T17:18:35;4.20;99.90
76838;DHT22;65797;47.352;8.164;2023-02-11T17:21:04;4.10;99.90
76838;DHT22;65797;47.352;8.164;2023-02-11T17:23:30;4.00;99.90
76838;DHT22;65797;47.352;8.164;2023-02-11T17:25:56;3.70;99.90
76838;DHT22;65797;47.352;8.164;2023-02-11T17:28:21;3.50;99.90
76838;DHT22;65797;47.352;8.164;2023-02-11T17:30:47;3.50;99.90
76838;DHT22;65797;47.352;8.164;2023-02-11T17:33:13;3.50;99.90
76838;DHT22;65797;47.352;8.164;2023-02-11T18:06:43;2.50;99.90
76838;DHT22;65797;47.352;8.164;2023-02-11T18:14:21;2.10;99.90
76838;DHT22;65797;47.352;8.164;2023-02-11T18:16:51;2.10;99.90
76838;DHT22;65797;47.352;8.164;2023-02-11T18:58:07;1.30;99.90
76838;DHT22;65797;47.352;8.164;2023-02-11T19:10:54;1.10;1.00
76838;DHT22;65797;47.352;8.164;2023-02-11T19:24:06;0.80;1.00
76838;DHT22;65797;47.352;8.164;2023-02-11T19:26:32;0.80;1.00
76838;DHT22;65797;47.352;8.164;2023-02-11T19:28:58;0.70;1.00
76838;DHT22;65797;47.352;8.164;2023-02-11T19:31:24;0.50;1.00
76838;DHT22;65797;47.352;8.164;2023-02-11T19:33:50;0.50;1.00
76838;DHT22;65797;47.352;8.164;2023-02-11T21:33:54;-0.90;1.00
76838;DHT22;65797;47.352;8.164;2023-02-11T21:36:22;-1.00;4.20
76838;DHT22;65797;47.352;8.164;2023-02-11T21:38:48;-1.00;1.00
76838;DHT22;65797;47.352;8.164;2023-02-11T21:41:16;-1.10;71.80
76838;DHT22;65797;47.352;8.164;2023-02-11T21:46:18;-1.10;62.70
76838;DHT22;65797;47.352;8.164;2023-02-11T21:48:44;-1.20;99.90
76838;DHT22;65797;47.352;8.164;2023-02-11T21:53:46;-1.10;99.90
76838;DHT22;65797;47.352;8.164;2023-02-11T22:03:58;-1.10;99.90
76838;DHT22;65797;47.352;8.164;2023-02-11T22:16:46;-1.20;99.90
76838;DHT22;65797;47.352;8.164;2023-02-11T22:19:12;-1.20;99.90
76838;DHT22;65797;47.352;8.164;2023-02-11T22:21:38;-1.20;99.90
76838;DHT22;65797;47.352;8.164;2023-02-11T22:24:04;-1.20;94.00
76838;DHT22;65797;47.352;8.164;2023-02-11T22:31:41;-1.30;99.90
76838;DHT22;65797;47.352;8.164;2023-02-11T22:34:06;-1.30;99.90
76838;DHT22;65797;47.352;8.164;2023-02-11T22:36:38;-1.40;87.70
76838;DHT22;65797;47.352;8.164;2023-02-11T22:39:15;-1.40;99.90
76838;DHT22;65797;47.352;8.164;2023-02-11T22:41:43;-1.40;99.90
76838;DHT22;65797;47.352;8.164;2023-02-11T22:44:09;-1.40;99.90
76838;DHT22;65797;47.352;8.164;2023-02-11T22:46:35;-1.40;99.90
76838;DHT22;65797;47.352;8.164;2023-02-11T22:49:01;-1.40;99.90
76838;DHT22;65797;47.352;8.164;2023-02-11T22:51:28;-1.40;99.90
76838;DHT22;65797;47.352;8.164;2023-02-11T22:53:57;-1.50;99.90
76838;DHT22;65797;47.352;8.164;2023-02-11T22:56:24;-1.50;99.90
76838;DHT22;65797;47.352;8.164;2023-02-11T22:58:50;-1.50;99.90
76838;DHT22;65797;47.352;8.164;2023-02-11T23:01:16;-1.50;99.90
76838;DHT22;65797;47.352;8.164;2023-02-11T23:03:42;-1.50;99.90
76838;DHT22;65797;47.352;8.164;2023-02-11T23:06:10;-1.50;99.90
76838;DHT22;65797;47.352;8.164;2023-02-11T23:08:38;-1.60;99.90
76838;DHT22;65797;47.352;8.164;2023-02-11T23:11:24;-1.60;99.90
76838;DHT22;65797;47.352;8.164;2023-02-11T23:13:52;-1.60;99.90
76838;DHT22;65797;47.352;8.164;2023-02-11T23:16:23;-1.60;99.90
76838;DHT22;65797;47.352;8.164;2023-02-11T23:18:50;-1.70;99.90
76838;DHT22;65797;47.352;8.164;2023-02-11T23:21:16;-1.70;99.90
76838;DHT22;65797;47.352;8.164;2023-02-11T23:23:43;-1.60;99.90
76838;DHT22;65797;47.352;8.164;2023-02-11T23:26:14;-1.70;99.90
76838;DHT22;65797;47.352;8.164;2023-02-11T23:28:40;-1.70;99.90
76838;DHT22;65797;47.352;8.164;2023-02-11T23:31:26;-1.70;99.90
76838;DHT22;65797;47.352;8.164;2023-02-11T23:33:52;-1.80;99.90
76838;DHT22;65797;47.352;8.164;2023-02-11T23:36:18;-1.80;99.90
76838;DHT22;65797;47.352;8.164;2023-02-11T23:38:45;-1.80;99.90
76838;DHT22;65797;47.352;8.164;2023-02-11T23:41:11;-1.80;1.00
76838;DHT22;65797;47.352;8.164;2023-02-11T23:43:37;-1.80;99.90
76838;DHT22;65797;47.352;8.164;2023-02-11T23:46:04;-1.90;99.90
76838;DHT22;65797;47.352;8.164;2023-02-11T23:48:30;-1.90;99.90
76838;DHT22;65797;47.352;8.164;2023-02-11T23:50:55;-1.90;1.00
76838;DHT22;65797;47.352;8.164;2023-02-11T23:55:57;-2.00;99.90
76838;DHT22;65797;47.352;8.164;2023-02-11T23:58:22;-2.10;99.90
